Time;durP1;ratioP1;P1;durP2;ratioP2;P2;SDS_P1;SDS_P2;PMS_P1;PMS_P2;Temp;Humidity;BMP_temperature;BMP_pressure;BME280_temperature;BME280_humidity;BME280_pressure;Samples;Min_cycle;Max_cycle;Signal;HPM_P1;HPM_P2
2022/09/06 00:01:11;;;;;;;8.10;3.23;;;;;;;22.71;56.54;100568.28;5026561;28;20646;-65
2022/09/06 00:03:39;;;;;;;6.40;2.93;;;;;;;22.73;56.70;100560.78;5025630;28;20235;-65
2022/09/06 00:06:10;;;;;;;8.03;3.70;;;;;;;22.71;56.67;100560.16;5027600;28;20223;-65
2022/09/06 00:08:37;;;;;;;11.43;2.80;;;;;;;22.68;56.66;100557.94;5027427;28;20214;-66
2022/09/06 00:11:06;;;;;;;9.40;2.63;;;;;;;22.61;56.90;100550.94;5025143;28;20299;-66
2022/09/06 00:13:34;;;;;;;7.83;3.00;;;;;;;22.56;57.02;100548.91;5024294;28;20239;-66
2022/09/06 00:16:07;;;;;;;6.43;3.10;;;;;;;22.54;57.16;100556.41;5022937;28;20201;-66
2022/09/06 00:18:36;;;;;;;5.47;3.30;;;;;;;22.49;57.00;100542.75;5025858;28;20251;-66
2022/09/06 00:21:05;;;;;;;7.53;2.90;;;;;;;22.51;56.63;100549.59;5027449;28;20204;-66
2022/09/06 00:23:33;;;;;;;7.17;2.83;;;;;;;22.53;56.45;100550.19;5024141;28;20212;-66
2022/09/06 00:26:04;;;;;;;6.93;3.00;;;;;;;22.51;56.56;100557.72;5023109;28;21633;-66
2022/09/06 00:28:32;;;;;;;5.70;3.00;;;;;;;22.55;56.20;100558.06;5023290;28;20205;-66
2022/09/06 00:31:08;;;;;;;9.07;4.10;;;;;;;22.57;55.95;100550.56;5025598;28;20209;-65
2022/09/06 00:33:37;;;;;;;6.27;3.37;;;;;;;22.50;56.13;100557.94;5027237;28;20232;-65
2022/09/06 00:36:06;;;;;;;6.83;3.23;;;;;;;22.42;56.43;100559.06;5022507;28;20222;-66
2022/09/06 00:38:34;;;;;;;7.73;3.10;;;;;;;22.43;56.28;100554.44;5026546;28;20669;-66
2022/09/06 00:41:02;;;;;;;7.37;3.87;;;;;;;22.45;56.49;100560.47;5024132;28;20254;-66
2022/09/06 00:43:29;;;;;;;8.40;3.23;;;;;;;22.42;56.85;100552.81;5026892;28;20228;-66
2022/09/06 00:45:57;;;;;;;6.13;3.07;;;;;;;22.43;56.88;100546.34;5024664;28;20215;-67
2022/09/06 00:48:25;;;;;;;4.37;2.80;;;;;;;22.45;56.51;100552.34;5024873;28;20236;-67
2022/09/06 00:50:58;;;;;;;11.00;2.80;;;;;;;22.50;56.27;100552.53;5024473;28;21265;-66
2022/09/06 00:53:27;;;;;;;7.87;3.17;;;;;;;22.41;56.66;100557.41;5021217;28;20246;-66
2022/09/06 00:55:55;;;;;;;4.83;3.03;;;;;;;22.32;56.87;100560.59;5022844;28;20209;-65
2022/09/06 00:58:24;;;;;;;7.43;3.03;;;;;;;22.34;57.14;100563.91;5024937;28;20228;-66
2022/09/06 01:00:53;;;;;;;8.33;3.13;;;;;;;22.32;56.43;100566.00;5024218;28;20666;-66
2022/09/06 01:03:22;;;;;;;6.20;3.37;;;;;;;22.34;56.48;100575.53;5024565;28;20653;-66
2022/09/06 01:06:06;;;;;;;5.97;3.10;;;;;;;22.36;56.30;100575.31;5024609;28;20213;-67
2022/09/06 01:08:47;;;;;;;8.97;3.13;;;;;;;22.40;56.06;100585.47;5025255;28;20295;-66
2022/09/06 01:11:29;;;;;;;7.13;2.90;;;;;;;22.38;55.71;100595.66;5024641;28;20600;-66
2022/09/06 01:14:10;;;;;;;6.83;2.97;;;;;;;22.42;56.11;100599.56;5022115;28;20887;-66
2022/09/06 01:16:43;;;;;;;5.27;2.57;;;;;;;22.50;56.41;100609.28;5024099;28;20207;-66
2022/09/06 01:19:39;;;;;;;7.87;3.17;;;;;;;22.46;57.76;100716.13;5025539;28;20209;-65
2022/09/06 01:22:24;;;;;;;4.60;3.10;;;;;;;22.36;57.22;100710.38;5021952;28;20224;-65
2022/09/06 01:25:04;;;;;;;8.63;3.17;;;;;;;22.36;56.02;100705.81;5025736;28;20209;-65
2022/09/06 01:27:50;;;;;;;8.30;3.20;;;;;;;22.40;55.36;100711.59;5020842;28;20212;-65
2022/09/06 01:30:19;;;;;;;6.30;2.87;;;;;;;22.47;54.92;100715.09;5023510;28;20205;-65
2022/09/06 01:32:53;;;;;;;7.67;3.23;;;;;;;22.56;54.97;100729.97;5024447;28;20215;-65
2022/09/06 01:35:33;;;;;;;6.70;2.60;;;;;;;22.67;55.13;100713.06;5024303;28;20230;-66
2022/09/06 01:38:03;;;;;;;6.03;2.30;;;;;;;22.72;55.01;100710.50;5021073;28;20211;-65
2022/09/06 01:40:35;;;;;;;10.50;2.00;;;;;;;22.78;55.60;100712.34;5022770;28;20241;-65
2022/09/06 01:43:05;;;;;;;7.60;2.57;;;;;;;22.83;56.22;100720.63;5003249;28;20352;-65
2022/09/06 01:45:47;;;;;;;3.23;1.80;;;;;;;22.89;56.68;100700.81;5005627;28;20201;-65
2022/09/06 01:48:25;;;;;;;6.13;2.10;;;;;;;22.91;57.50;100697.06;5005217;28;20214;-65
2022/09/06 01:51:04;;;;;;;4.43;1.70;;;;;;;22.93;57.79;100694.97;5005688;28;20291;-65
2022/09/06 01:53:46;;;;;;;4.97;1.90;;;;;;;22.94;58.63;100685.78;5004989;28;20209;-65
2022/09/06 01:56:26;;;;;;;3.33;2.00;;;;;;;22.89;59.83;100673.75;5001584;28;20321;-65
2022/09/06 01:59:14;;;;;;;3.38;1.80;;;;;;;22.87;60.08;100667.75;5001711;28;20311;-66
2022/09/06 02:01:49;;;;;;;6.03;2.20;;;;;;;22.83;60.67;100647.63;5004398;28;20215;-66
2022/09/06 02:04:26;;;;;;;6.53;2.03;;;;;;;22.84;60.75;100632.25;5006188;28;20209;-66
2022/09/06 02:06:58;;;;;;;4.83;2.70;;;;;;;22.82;60.79;100608.13;5005722;28;20201;-66
2022/09/06 02:09:32;;;;;;;3.67;2.17;;;;;;;22.84;60.54;100603.31;5002004;28;20201;-66
2022/09/06 02:12:03;;;;;;;6.80;2.17;;;;;;;22.86;60.42;100603.94;5004931;28;20296;-65
2022/09/06 02:14:37;;;;;;;2.88;1.50;;;;;;;22.86;60.73;100612.03;5004778;28;20343;-65
2022/09/06 02:17:09;;;;;;;2.77;1.50;;;;;;;22.87;60.65;100627.19;5002845;28;20205;-66
2022/09/06 02:19:44;;;;;;;4.97;1.67;;;;;;;22.85;60.85;100629.31;5006500;28;20292;-65
2022/09/06 02:22:17;;;;;;;4.70;1.70;;;;;;;22.89;61.20;100622.38;5002434;28;20547;-66
2022/09/06 02:24:49;;;;;;;5.27;1.70;;;;;;;22.89;62.33;100625.09;5005284;28;20209;-66
2022/09/06 02:27:17;;;;;;;4.47;1.67;;;;;;;22.86;62.57;100644.50;5003216;28;20197;-65
2022/09/06 02:29:46;;;;;;;3.33;1.80;;;;;;;22.78;63.71;100636.66;5003742;28;20209;-65
2022/09/06 02:32:19;;;;;;;4.93;1.73;;;;;;;22.78;64.25;100649.38;5003812;28;20219;-65
2022/09/06 02:34:47;;;;;;;2.88;1.50;;;;;;;22.74;63.76;100648.97;5003911;28;20233;-66
2022/09/06 02:37:16;;;;;;;3.25;1.48;;;;;;;22.75;63.39;100658.72;5006083;28;22166;-66
2022/09/06 02:39:44;;;;;;;1.75;1.05;;;;;;;22.72;64.02;100659.13;5004882;28;20233;-66
2022/09/06 02:42:16;;;;;;;4.80;1.10;;;;;;;22.74;63.39;100645.41;5017746;28;20271;-66
2022/09/06 02:44:44;;;;;;;3.33;1.10;;;;;;;22.72;63.97;100645.63;5021933;28;20581;-65
2022/09/06 02:47:13;;;;;;;3.87;1.17;;;;;;;22.75;63.46;100633.56;5020861;28;20205;-66
2022/09/06 02:49:40;;;;;;;2.80;1.20;;;;;;;22.75;63.77;100622.75;5022860;28;20212;-66
2022/09/06 02:52:08;;;;;;;4.63;1.25;;;;;;;22.63;65.91;100619.09;5022634;28;20718;-66
2022/09/06 02:54:36;;;;;;;1.50;0.90;;;;;;;22.49;67.09;100623.81;5022482;28;20229;-66
2022/09/06 02:57:04;;;;;;;3.07;1.20;;;;;;;22.38;69.10;100649.69;5023667;28;20209;-66
2022/09/06 02:59:32;;;;;;;3.20;1.37;;;;;;;22.27;70.87;100642.28;5023815;28;20201;-66
2022/09/06 03:01:59;;;;;;;4.70;2.00;;;;;;;22.18;74.96;100631.97;5023598;28;20213;-65
2022/09/06 03:04:29;;;;;;;9.37;2.30;;;;;;;22.00;78.01;100641.66;5021173;28;20200;-66
2022/09/06 03:06:56;;;;;;;5.20;1.87;;;;;;;21.87;79.98;100649.84;5022088;28;20216;-65
2022/09/06 03:09:25;;;;;;;4.20;1.70;;;;;;;21.75;82.32;100622.69;5022488;28;20653;-65
2022/09/06 03:11:52;;;;;;;4.60;2.13;;;;;;;21.61;85.43;100620.31;5023671;28;20209;-65
2022/09/06 03:14:20;;;;;;;5.87;2.00;;;;;;;21.48;87.59;100606.88;5027952;28;20210;-65
2022/09/06 03:16:48;;;;;;;4.70;1.70;;;;;;;21.34;87.90;100588.09;5027114;28;20211;-65
2022/09/06 03:19:16;;;;;;;3.87;1.50;;;;;;;21.24;89.94;100600.38;5028203;28;20731;-65
2022/09/06 03:21:45;;;;;;;4.43;1.83;;;;;;;21.32;87.96;100622.53;5030351;28;20208;-66
2022/09/06 03:24:13;;;;;;;5.10;2.03;;;;;;;21.50;87.08;100623.69;5029232;28;20296;-65
2022/09/06 03:26:41;;;;;;;4.33;1.80;;;;;;;21.60;87.12;100606.00;5024735;28;20271;-66
2022/09/06 03:29:08;;;;;;;7.33;2.00;;;;;;;21.55;89.69;100588.81;5026594;28;20220;-66
2022/09/06 03:31:36;;;;;;;4.90;2.27;;;;;;;21.47;89.12;100587.16;5027626;28;20630;-66
2022/09/06 03:34:04;;;;;;;4.60;1.90;;;;;;;21.59;86.71;100611.59;5028565;28;20658;-66
2022/09/06 03:36:37;;;;;;;3.70;1.90;;;;;;;21.69;86.01;100618.19;5025215;28;20247;-66
2022/09/06 03:39:06;;;;;;;6.03;2.20;;;;;;;21.77;85.18;100614.41;5026736;28;20209;-66
2022/09/06 03:41:34;;;;;;;7.00;2.27;;;;;;;21.79;86.01;100606.91;5026623;28;21043;-66
2022/09/06 03:44:02;;;;;;;3.50;1.50;;;;;;;21.61;87.12;100598.72;5026866;28;20211;-66
2022/09/06 03:46:30;;;;;;;4.83;2.30;;;;;;;21.53;87.89;100601.69;5023876;28;20231;-66
2022/09/06 03:48:58;;;;;;;6.63;2.33;;;;;;;21.53;88.15;100593.59;5023415;28;20208;-66
2022/09/06 03:51:26;;;;;;;3.03;1.63;;;;;;;21.57;88.08;100598.31;5026673;28;20665;-66
2022/09/06 03:53:54;;;;;;;4.37;2.10;;;;;;;21.63;87.86;100583.16;5030061;28;20213;-66
2022/09/06 03:56:23;;;;;;;5.20;2.23;;;;;;;21.64;87.50;100576.69;5029568;28;20221;-66
2022/09/06 03:58:51;;;;;;;6.70;2.90;;;;;;;21.47;90.84;100570.16;5028640;28;20239;-66
2022/09/06 04:01:19;;;;;;;6.30;2.27;;;;;;;21.32;92.14;100562.34;5029815;28;20207;-66
2022/09/06 04:03:47;;;;;;;6.67;2.33;;;;;;;21.38;91.09;100577.66;5029982;28;20236;-66
2022/09/06 04:06:15;;;;;;;5.87;2.23;;;;;;;21.44;89.84;100576.81;5031152;28;20207;-66
2022/09/06 04:08:43;;;;;;;6.33;1.87;;;;;;;21.55;87.13;100578.81;5028982;28;20209;-66
2022/09/06 04:11:10;;;;;;;6.37;1.87;;;;;;;21.57;86.61;100582.13;5030580;28;20212;-67
2022/09/06 04:13:40;;;;;;;6.23;2.33;;;;;;;21.63;85.63;100580.44;5029567;28;20251;-66
2022/09/06 04:16:08;;;;;;;3.90;2.43;;;;;;;21.67;83.77;100577.09;5025411;28;20235;-66
2022/09/06 04:18:36;;;;;;;4.23;2.30;;;;;;;21.65;83.48;100578.34;5030169;28;20236;-66
2022/09/06 04:21:04;;;;;;;9.97;2.50;;;;;;;21.56;84.18;100576.94;5030234;28;20211;-66
2022/09/06 04:23:31;;;;;;;8.83;2.40;;;;;;;21.53;84.35;100585.50;5029189;28;20216;-66
2022/09/06 04:26:06;;;;;;;3.97;2.40;;;;;;;21.55;83.59;100583.41;5028021;28;20214;-66
2022/09/06 04:28:34;;;;;;;3.30;2.00;;;;;;;21.61;83.13;100587.94;5027148;28;20897;-66
2022/09/06 04:31:04;;;;;;;5.53;2.10;;;;;;;21.59;82.70;100598.09;5030279;28;20223;-66
2022/09/06 04:33:33;;;;;;;5.83;2.20;;;;;;;21.61;82.71;100593.31;5027717;28;20278;-67
2022/09/06 04:36:03;;;;;;;4.57;2.40;;;;;;;21.56;83.07;100601.22;5028706;28;20262;-67
2022/09/06 04:38:35;;;;;;;5.63;2.27;;;;;;;21.51;83.51;100598.38;5032248;28;20207;-67
2022/09/06 04:41:03;;;;;;;9.00;2.53;;;;;;;21.31;84.16;100593.91;5026484;28;20236;-67
2022/09/06 04:43:31;;;;;;;3.70;2.23;;;;;;;21.30;84.48;100594.94;5028931;28;20208;-66
2022/09/06 04:46:05;;;;;;;4.73;2.23;;;;;;;21.34;83.83;100588.09;5028751;28;20209;-66
2022/09/06 04:48:33;;;;;;;6.87;2.70;;;;;;;21.36;83.26;100588.69;5028714;28;20209;-67
2022/09/06 04:51:00;;;;;;;6.37;2.57;;;;;;;21.32;83.28;100578.53;5029909;28;20620;-67
2022/09/06 04:53:28;;;;;;;6.67;2.70;;;;;;;21.29;82.71;100574.41;5028866;28;20219;-67
2022/09/06 04:55:57;;;;;;;5.60;2.37;;;;;;;21.25;82.82;100581.28;5028533;28;20228;-66
2022/09/06 04:58:25;;;;;;;7.17;2.70;;;;;;;21.29;82.23;100585.19;5030073;28;20235;-67
2022/09/06 05:00:53;;;;;;;6.57;2.80;;;;;;;21.26;82.91;100584.81;5033051;28;20219;-67
2022/09/06 05:03:22;;;;;;;5.83;2.73;;;;;;;21.27;82.42;100589.16;5027562;28;20201;-67
2022/09/06 05:05:50;;;;;;;5.30;2.80;;;;;;;21.23;82.77;100593.31;5026949;28;20211;-67
2022/09/06 05:08:18;;;;;;;6.67;2.70;;;;;;;21.04;84.77;100593.16;5030697;28;20204;-65
2022/09/06 05:10:46;;;;;;;4.50;2.30;;;;;;;21.07;83.91;100593.78;5028915;28;20213;-65
2022/09/06 05:13:14;;;;;;;6.87;2.80;;;;;;;21.07;83.81;100597.31;5029812;28;20347;-65
2022/09/06 05:15:42;;;;;;;7.47;2.43;;;;;;;21.06;83.64;100598.34;5029432;28;20229;-65
2022/09/06 05:18:09;;;;;;;5.77;2.70;;;;;;;21.09;83.26;100602.47;5026842;28;20569;-66
2022/09/06 05:20:44;;;;;;;5.33;2.40;;;;;;;21.15;82.65;100598.91;5028162;28;20197;-66
2022/09/06 05:23:11;;;;;;;6.07;2.63;;;;;;;21.18;82.77;100593.97;5027280;28;20636;-66
2022/09/06 05:25:39;;;;;;;12.10;2.90;;;;;;;21.19;82.72;100584.84;5030236;28;20200;-66
2022/09/06 05:28:07;;;;;;;4.63;2.47;;;;;;;21.26;81.75;100595.59;5028771;28;20209;-67
2022/09/06 05:30:34;;;;;;;9.10;2.70;;;;;;;21.27;80.58;100597.25;5028975;28;20209;-66
2022/09/06 05:33:02;;;;;;;7.40;2.80;;;;;;;21.26;80.81;100607.22;5029269;28;20538;-67
2022/09/06 05:35:30;;;;;;;4.37;2.60;;;;;;;21.23;81.30;100613.03;5028232;28;20201;-66
2022/09/06 05:37:59;;;;;;;6.27;3.20;;;;;;;21.16;82.73;100622.16;5027541;28;20212;-67
2022/09/06 05:40:27;;;;;;;6.80;3.20;;;;;;;21.03;84.77;100613.06;5029552;28;20239;-67
2022/09/06 05:42:55;;;;;;;7.50;3.40;;;;;;;21.02;84.45;100619.50;5028686;28;20205;-66
2022/09/06 05:45:22;;;;;;;8.87;3.20;;;;;;;21.09;83.94;100632.97;5028902;28;20684;-66
2022/09/06 05:47:50;;;;;;;6.53;2.83;;;;;;;21.21;82.63;100627.75;5027557;28;20201;-66
2022/09/06 05:50:18;;;;;;;7.77;3.17;;;;;;;21.10;84.90;100640.03;5027882;28;20205;-66
2022/09/06 05:52:46;;;;;;;7.53;2.70;;;;;;;21.02;85.96;100641.06;5029431;28;20223;-66
2022/09/06 05:55:15;;;;;;;6.67;3.13;;;;;;;21.05;85.87;100642.50;5031128;28;20201;-66
2022/09/06 05:57:42;;;;;;;6.40;3.50;;;;;;;21.05;85.43;100647.91;5026214;28;20323;-66
2022/09/06 06:00:12;;;;;;;5.73;3.20;;;;;;;20.89;87.15;100648.38;5027941;28;20212;-67
2022/09/06 06:02:39;;;;;;;7.03;3.10;;;;;;;20.88;86.32;100647.53;5028072;28;20223;-67
2022/09/06 06:05:08;;;;;;;6.90;3.60;;;;;;;21.01;84.41;100658.31;5029375;28;20204;-66
2022/09/06 06:07:36;;;;;;;8.23;3.47;;;;;;;20.98;85.62;100657.88;5027128;28;20200;-66
2022/09/06 06:10:04;;;;;;;8.77;3.27;;;;;;;20.89;86.45;100664.53;5027910;28;20607;-66
2022/09/06 06:12:33;;;;;;;9.43;3.23;;;;;;;20.84;86.50;100658.97;5028136;28;20208;-66
2022/09/06 06:15:01;;;;;;;12.47;4.00;;;;;;;20.83;86.65;100662.69;5027467;28;20201;-66
2022/09/06 06:17:28;;;;;;;7.27;3.43;;;;;;;20.85;87.09;100650.63;5028452;28;20813;-66
2022/09/06 06:19:57;;;;;;;7.00;3.30;;;;;;;20.85;87.43;100657.91;5027897;28;20757;-67
2022/09/06 06:22:24;;;;;;;8.63;4.07;;;;;;;20.89;86.98;100659.16;5026243;28;21197;-65
2022/09/06 06:24:52;;;;;;;9.73;4.27;;;;;;;20.90;88.35;100660.81;5026775;28;20204;-66
2022/09/06 06:27:20;;;;;;;10.13;4.37;;;;;;;20.94;88.26;100664.72;5026393;28;20205;-66
2022/09/06 06:29:49;;;;;;;8.63;4.20;;;;;;;20.96;89.44;100665.34;5026909;28;20244;-68
2022/09/06 06:32:17;;;;;;;6.67;4.80;;;;;;;21.02;89.47;100672.59;5026406;28;20213;-67
2022/09/06 06:34:44;;;;;;;8.80;4.20;;;;;;;21.10;88.72;100676.94;5026300;28;20212;-66
2022/09/06 06:37:12;;;;;;;9.10;4.77;;;;;;;21.16;87.80;100685.00;5026968;28;20224;-66
2022/09/06 06:39:40;;;;;;;9.33;4.97;;;;;;;21.21;87.14;100684.38;5027172;28;20204;-66
2022/09/06 06:42:07;;;;;;;8.27;4.60;;;;;;;21.30;85.80;100694.72;5026979;28;20679;-67
2022/09/06 06:44:35;;;;;;;7.53;4.67;;;;;;;21.44;85.28;100690.13;5027567;28;20219;-68
2022/09/06 06:47:05;;;;;;;10.27;5.20;;;;;;;21.49;84.53;100686.78;5024820;28;20197;-67
2022/09/06 06:49:33;;;;;;;10.47;4.47;;;;;;;21.63;83.20;100685.69;5026332;28;20208;-66
2022/09/06 06:52:01;;;;;;;11.33;4.70;;;;;;;21.74;83.94;100693.91;5027302;28;20208;-68
2022/09/06 06:54:29;;;;;;;11.30;4.90;;;;;;;21.83;83.29;100690.97;5027362;28;20213;-67
2022/09/06 06:56:57;;;;;;;7.43;3.93;;;;;;;21.89;80.74;100699.06;5027148;28;20239;-66
2022/09/06 06:59:24;;;;;;;10.03;4.37;;;;;;;21.85;79.83;100695.09;5028195;28;20658;-66
2022/09/06 07:01:52;;;;;;;7.97;4.30;;;;;;;21.84;80.09;100693.44;5027505;28;21625;-67
2022/09/06 07:04:22;;;;;;;6.47;4.03;;;;;;;21.85;80.85;100695.09;5028657;28;20239;-67
2022/09/06 07:06:52;;;;;;;8.60;4.20;;;;;;;21.94;79.71;100696.50;5026519;28;20208;-67
2022/09/06 07:09:39;;;;;;;8.40;4.43;;;;;;;21.93;79.27;100692.16;5026486;28;20217;-66
2022/09/06 07:12:27;;;;;;;5.90;3.97;;;;;;;21.90;79.84;100695.28;5024436;28;20662;-66
2022/09/06 07:14:55;;;;;;;9.57;4.67;;;;;;;22.00;80.63;100698.38;5026773;28;20235;-66
2022/09/06 07:17:23;;;;;;;8.37;4.80;;;;;;;22.05;80.29;100693.16;5027088;28;20828;-67
2022/09/06 07:19:52;;;;;;;10.63;4.70;;;;;;;22.04;80.06;100690.66;5027211;28;20211;-66
2022/09/06 07:22:40;;;;;;;8.30;4.50;;;;;;;22.06;80.02;100688.59;5024990;28;20215;-66
2022/09/06 07:25:10;;;;;;;6.87;4.53;;;;;;;22.12;79.49;100691.25;5028318;28;20215;-67
2022/09/06 07:27:39;;;;;;;8.90;4.70;;;;;;;22.13;79.01;100692.91;5026073;28;20666;-67
2022/09/06 07:30:12;;;;;;;10.47;4.13;;;;;;;22.23;78.59;100688.88;5028465;28;20259;-66
2022/09/06 07:32:40;;;;;;;7.37;4.20;;;;;;;22.25;77.64;100692.19;5025481;28;20894;-66
2022/09/06 07:35:11;;;;;;;7.67;4.60;;;;;;;22.34;76.99;100688.19;5027692;28;20201;-66
2022/09/06 07:37:38;;;;;;;8.20;4.37;;;;;;;22.39;76.52;100689.16;5026586;28;20279;-65
2022/09/06 07:40:07;;;;;;;10.27;4.40;;;;;;;22.47;76.35;100690.75;5027455;28;20213;-67
2022/09/06 07:42:35;;;;;;;6.60;4.70;;;;;;;22.61;75.25;100692.28;5028143;28;20294;-68
2022/09/06 07:45:04;;;;;;;5.83;4.13;;;;;;;22.73;73.29;100690.53;5027087;28;20567;-65
2022/09/06 07:47:31;;;;;;;6.93;4.37;;;;;;;22.84;72.12;100686.31;5026406;28;20572;-67
2022/09/06 07:50:21;;;;;;;12.70;4.00;;;;;;;22.88;71.15;100688.31;5028074;28;20201;-67
2022/09/06 07:53:10;;;;;;;6.83;3.83;;;;;;;22.94;70.97;100696.63;5028871;28;20650;-66
2022/09/06 07:55:46;;;;;;;7.03;4.30;;;;;;;23.04;69.29;100702.34;5027746;28;20212;-67
2022/09/06 07:58:14;;;;;;;6.83;4.13;;;;;;;23.10;68.63;100702.25;5031411;28;20236;-66
2022/09/06 08:00:42;;;;;;;12.03;4.83;;;;;;;23.18;66.94;100698.44;5031387;28;20213;-66
2022/09/06 08:03:09;;;;;;;13.57;4.37;;;;;;;23.19;65.23;100691.97;5031181;28;20232;-66
2022/09/06 08:05:39;;;;;;;11.13;4.40;;;;;;;23.16;64.80;100684.28;5032531;28;20231;-66
2022/09/06 08:08:26;;;;;;;9.38;4.03;;;;;;;23.08;65.33;100690.00;5030701;28;20684;-66
2022/09/06 08:11:14;;;;;;;11.37;4.27;;;;;;;23.18;64.72;100683.03;5028426;28;20208;-66
2022/09/06 08:13:42;;;;;;;9.13;4.93;;;;;;;23.36;63.90;100684.91;5033129;28;20213;-66
2022/09/06 08:16:12;;;;;;;8.73;4.67;;;;;;;23.53;63.19;100683.25;5032295;28;20201;-66
2022/09/06 08:18:40;;;;;;;10.35;4.65;;;;;;;23.67;63.32;100691.19;5031096;28;20232;-67
2022/09/06 08:21:12;;;;;;;14.33;5.23;;;;;;;23.73;62.92;100699.25;5031471;28;20216;-66
2022/09/06 08:23:42;;;;;;;13.07;6.00;;;;;;;23.87;61.69;100694.47;5030665;28;20658;-66
2022/09/06 08:26:10;;;;;;;12.75;5.22;;;;;;;23.94;61.60;100695.19;5028830;28;20213;-66
2022/09/06 08:28:38;;;;;;;11.18;4.68;;;;;;;24.16;60.94;100696.34;5027694;28;20201;-66
2022/09/06 08:31:08;;;;;;;8.75;5.53;;;;;;;24.24;61.22;100693.31;5027220;28;20206;-67
2022/09/06 08:33:37;;;;;;;12.75;5.38;;;;;;;24.43;60.35;100683.22;5030692;28;20239;-66
2022/09/06 08:36:05;;;;;;;9.18;5.03;;;;;;;24.64;58.97;100679.09;5029904;28;20220;-67
2022/09/06 08:38:35;;;;;;;7.57;4.70;;;;;;;24.84;58.00;100687.72;5030811;28;20235;-67
2022/09/06 08:41:08;;;;;;;11.27;4.40;;;;;;;25.06;57.24;100688.81;5032215;28;20236;-66
2022/09/06 08:43:36;;;;;;;8.15;4.15;;;;;;;25.07;57.52;100695.03;5034838;28;20304;-67
2022/09/06 08:46:04;;;;;;;9.60;4.78;;;;;;;25.32;56.96;100692.06;5028122;28;20237;-66
2022/09/06 08:48:35;;;;;;;7.72;4.80;;;;;;;25.40;56.79;100686.25;5025775;28;20209;-66
2022/09/06 08:51:26;;;;;;;8.68;4.55;;;;;;;25.67;55.17;100690.09;5035464;28;20563;-66
2022/09/06 08:53:59;;;;;;;7.50;4.85;;;;;;;25.99;54.47;100681.44;5024506;28;20304;-66
2022/09/06 08:56:34;;;;;;;7.03;4.47;;;;;;;26.06;53.78;100674.78;5030076;28;20209;-67
2022/09/06 08:59:05;;;;;;;8.98;4.50;;;;;;;26.21;54.06;100666.88;5030503;28;20652;-66
2022/09/06 09:01:42;;;;;;;8.95;4.22;;;;;;;26.41;54.37;100666.44;5033621;28;20292;-66
2022/09/06 09:04:16;;;;;;;10.50;4.13;;;;;;;26.70;53.46;100658.16;5031725;28;20212;-66
2022/09/06 09:06:50;;;;;;;6.43;4.18;;;;;;;26.95;53.14;100655.84;5031239;28;20678;-66
2022/09/06 09:09:19;;;;;;;9.68;4.68;;;;;;;27.15;52.47;100656.13;5032440;28;20615;-66
2022/09/06 09:11:50;;;;;;;11.10;4.40;;;;;;;27.52;50.26;100660.91;5029734;28;20227;-66
2022/09/06 09:14:22;;;;;;;7.35;4.00;;;;;;;27.86;49.38;100658.84;5030959;28;20263;-67
2022/09/06 09:16:50;;;;;;;9.35;3.63;;;;;;;28.09;49.46;100655.78;5032560;28;20295;-66
2022/09/06 09:19:18;;;;;;;6.32;4.05;;;;;;;28.69;48.06;100646.47;5030359;28;20236;-66
2022/09/06 09:21:46;;;;;;;11.57;3.90;;;;;;;29.42;46.07;100642.78;5032953;28;20683;-67
2022/09/06 09:24:15;;;;;;;8.07;3.95;;;;;;;30.73;42.86;100648.63;5031575;28;20204;-67
2022/09/06 09:26:50;;;;;;;7.45;3.97;;;;;;;32.57;38.68;100626.19;5028781;28;20201;-66
2022/09/06 09:29:19;;;;;;;9.35;4.30;;;;;;;33.08;37.68;100631.13;5030450;28;20738;-66
2022/09/06 09:31:55;;;;;;;9.43;3.50;;;;;;;32.13;39.52;100637.28;5032812;28;20205;-67
2022/09/06 09:34:33;;;;;;;8.50;4.95;;;;;;;31.07;39.25;100630.50;5034446;28;20303;-67
2022/09/06 09:37:17;;;;;;;5.93;3.78;;;;;;;29.98;42.00;100634.72;5026532;28;20283;-66
2022/09/06 09:40:07;;;;;;;5.50;3.45;;;;;;;29.49;43.15;100632.41;5026611;28;20208;-66
2022/09/06 09:42:38;;;;;;;7.55;3.75;;;;;;;29.04;44.91;100629.47;5026521;28;21107;-66
2022/09/06 09:45:23;;;;;;;10.35;3.72;;;;;;;28.57;46.13;100624.84;5029350;28;20213;-66
2022/09/06 09:47:51;;;;;;;7.85;3.90;;;;;;;28.24;46.87;100625.97;5029951;28;20209;-66
2022/09/06 09:50:28;;;;;;;7.53;4.07;;;;;;;27.97;47.28;100628.69;5030190;28;20213;-66
2022/09/06 09:52:55;;;;;;;12.25;4.72;;;;;;;27.64;47.70;100626.19;5030391;28;20213;-67
2022/09/06 09:55:25;;;;;;;6.70;4.18;;;;;;;27.63;47.66;100625.38;5029318;28;20233;-67
2022/09/06 09:57:55;;;;;;;7.32;4.00;;;;;;;27.51;48.58;100621.13;5029192;28;20208;-67
2022/09/06 10:00:35;;;;;;;8.68;3.88;;;;;;;27.38;49.45;100618.81;5029188;28;20240;-68
2022/09/06 10:03:12;;;;;;;12.07;4.28;;;;;;;27.46;48.24;100607.44;5029431;28;20200;-65
2022/09/06 10:05:41;;;;;;;9.32;4.60;;;;;;;27.34;48.65;100610.34;5029031;28;20209;-66
2022/09/06 10:08:12;;;;;;;10.50;4.35;;;;;;;27.19;49.29;100612.88;5029499;28;20212;-66
2022/09/06 10:10:42;;;;;;;8.93;4.00;;;;;;;27.01;49.71;100605.84;5029275;28;20213;-66
2022/09/06 10:13:18;;;;;;;9.30;4.13;;;;;;;27.54;49.29;100604.28;5028319;28;20204;-67
2022/09/06 10:15:47;;;;;;;9.25;3.60;;;;;;;28.72;45.87;100594.91;5027589;28;20215;-67
2022/09/06 10:18:30;;;;;;;8.57;3.75;;;;;;;28.86;45.53;100600.72;5028394;28;20204;-66
2022/09/06 10:21:00;;;;;;;6.65;3.33;;;;;;;28.53;45.76;100599.16;5028993;28;20215;-66
2022/09/06 10:23:40;;;;;;;11.35;7.50;;;;;;;28.13;47.03;100601.59;5027017;28;20332;-66
2022/09/06 10:26:32;;;;;;;8.23;4.53;;;;;;;27.72;48.02;100609.38;5025433;28;20594;-67
2022/09/06 10:29:05;;;;;;;7.45;3.88;;;;;;;27.49;48.60;100605.03;5027904;28;20209;-67
2022/09/06 10:31:58;;;;;;;10.20;4.60;;;;;;;27.25;48.93;100612.69;5029169;28;20228;-67
2022/09/06 10:34:54;;;;;;;14.20;4.50;;;;;;;27.05;49.99;100604.28;5028292;28;20291;-67
2022/09/06 10:37:47;;;;;;;9.15;4.50;;;;;;;26.86;50.61;100602.91;5026434;28;20231;-67
2022/09/06 10:40:25;;;;;;;11.05;4.47;;;;;;;26.73;51.27;100587.78;5025030;28;20243;-67
2022/09/06 10:42:56;;;;;;;9.63;4.60;;;;;;;26.73;51.30;100592.41;5008950;28;20201;-66
2022/09/06 10:45:47;;;;;;;8.60;4.50;;;;;;;26.89;50.84;100591.53;5009469;28;20206;-67
2022/09/06 10:48:21;;;;;;;8.50;4.38;;;;;;;26.85;50.40;100585.75;5004293;28;20220;-67
2022/09/06 10:50:53;;;;;;;11.35;4.18;;;;;;;26.74;51.18;100583.16;5007789;28;20220;-66
2022/09/06 10:53:34;;;;;;;6.70;4.25;;;;;;;26.70;51.28;100577.41;5008771;28;20227;-67
2022/09/06 10:56:06;;;;;;;8.52;3.95;;;;;;;26.71;51.24;100578.22;5007549;28;20205;-68
2022/09/06 10:58:42;;;;;;;7.53;3.58;;;;;;;26.80;50.69;100587.59;5008258;28;20205;-67
2022/09/06 11:01:38;;;;;;;8.43;3.38;;;;;;;26.90;49.93;100582.28;5008401;28;20216;-67
2022/09/06 11:04:11;;;;;;;4.60;3.10;;;;;;;26.84;50.05;100581.38;5005542;28;20850;-67
2022/09/06 11:06:44;;;;;;;7.38;4.10;;;;;;;26.80;50.46;100582.16;5007958;28;20214;-66
2022/09/06 11:09:21;;;;;;;8.18;4.35;;;;;;;26.91;50.00;100573.09;5009006;28;20651;-67
2022/09/06 11:11:57;;;;;;;11.57;4.03;;;;;;;26.89;50.30;100575.19;5008294;28;20211;-66
2022/09/06 11:14:28;;;;;;;7.65;4.25;;;;;;;26.87;49.89;100570.00;5006586;28;20205;-66
2022/09/06 11:17:03;;;;;;;9.88;4.55;;;;;;;27.01;50.03;100567.75;5008466;28;20641;-67
2022/09/06 11:19:40;;;;;;;8.05;4.07;;;;;;;27.50;48.75;100559.56;5003847;28;20256;-67
2022/09/06 11:22:36;;;;;;;6.88;3.55;;;;;;;27.49;48.68;100553.31;5006864;28;20292;-67
2022/09/06 11:25:29;;;;;;;5.80;3.80;;;;;;;27.35;48.88;100557.53;5007659;28;20237;-66
2022/09/06 11:27:59;;;;;;;9.85;4.30;;;;;;;27.27;49.49;100561.50;5007135;28;20220;-67
2022/09/06 11:30:29;;;;;;;11.45;4.50;;;;;;;28.10;48.09;100559.31;5008445;28;20202;-66
2022/09/06 11:33:11;;;;;;;8.13;3.67;;;;;;;28.76;45.63;100555.13;5008138;28;20727;-66
2022/09/06 11:35:41;;;;;;;6.45;3.85;;;;;;;29.13;44.39;100549.53;5009983;28;20304;-66
2022/09/06 11:38:23;;;;;;;5.55;3.00;;;;;;;29.90;43.02;100550.50;5012693;28;20210;-67
2022/09/06 11:41:00;;;;;;;5.85;3.72;;;;;;;30.95;40.19;100539.63;5015786;28;20240;-66
2022/09/06 11:43:46;;;;;;;6.90;3.80;;;;;;;31.40;39.45;100546.78;5031569;28;20755;-66
2022/09/06 11:46:48;;;;;;;8.13;3.53;;;;;;;32.27;38.18;100539.53;5027904;28;20211;-67